sensor_id;sensor_type;location;lat;lon;timestamp;P1;durP1;ratioP1;P2;durP2;ratioP2
56670;SDS011;42545;50.054;8.306;2023-01-29T00:01:11;3.38;;;2.70;;
56670;SDS011;42545;50.054;8.306;2023-01-29T00:03:40;2.97;;;2.63;;
56670;SDS011;42545;50.054;8.306;2023-01-29T00:06:07;3.60;;;2.38;;
56670;SDS011;42545;50.054;8.306;2023-01-29T00:08:36;3.08;;;2.42;;
56670;SDS011;42545;50.054;8.306;2023-01-29T00:11:06;3.30;;;2.67;;
56670;SDS011;42545;50.054;8.306;2023-01-29T00:13:34;4.57;;;2.70;;
56670;SDS011;42545;50.054;8.306;2023-01-29T00:16:03;3.47;;;2.80;;
56670;SDS011;42545;50.054;8.306;2023-01-29T00:18:31;4.05;;;2.78;;
56670;SDS011;42545;50.054;8.306;2023-01-29T00:20:58;3.28;;;2.72;;
56670;SDS011;42545;50.054;8.306;2023-01-29T00:23:26;4.75;;;3.17;;
56670;SDS011;42545;50.054;8.306;2023-01-29T00:25:58;5.18;;;4.20;;
56670;SDS011;42545;50.054;8.306;2023-01-29T00:28:26;4.85;;;4.03;;
56670;SDS011;42545;50.054;8.306;2023-01-29T00:30:53;5.93;;;3.72;;
56670;SDS011;42545;50.054;8.306;2023-01-29T00:33:22;4.95;;;4.03;;
56670;SDS011;42545;50.054;8.306;2023-01-29T00:35:50;5.80;;;4.60;;
56670;SDS011;42545;50.054;8.306;2023-01-29T00:38:16;5.30;;;4.50;;
56670;SDS011;42545;50.054;8.306;2023-01-29T00:40:43;6.50;;;4.85;;
56670;SDS011;42545;50.054;8.306;2023-01-29T00:43:27;5.85;;;4.47;;
56670;SDS011;42545;50.054;8.306;2023-01-29T00:46:12;5.10;;;4.28;;
56670;SDS011;42545;50.054;8.306;2023-01-29T00:48:38;5.32;;;3.97;;
56670;SDS011;42545;50.054;8.306;2023-01-29T00:51:06;6.15;;;3.85;;
56670;SDS011;42545;50.054;8.306;2023-01-29T00:53:33;4.45;;;3.60;;
56670;SDS011;42545;50.054;8.306;2023-01-29T00:55:59;5.57;;;3.47;;
56670;SDS011;42545;50.054;8.306;2023-01-29T00:58:26;5.03;;;4.05;;
56670;SDS011;42545;50.054;8.306;2023-01-29T01:01:00;5.65;;;4.15;;
56670;SDS011;42545;50.054;8.306;2023-01-29T01:03:27;5.47;;;3.97;;
56670;SDS011;42545;50.054;8.306;2023-01-29T01:06:03;6.30;;;4.38;;
56670;SDS011;42545;50.054;8.306;2023-01-29T01:08:37;4.75;;;3.70;;
56670;SDS011;42545;50.054;8.306;2023-01-29T01:11:21;4.07;;;3.58;;
56670;SDS011;42545;50.054;8.306;2023-01-29T01:13:48;3.55;;;3.17;;
56670;SDS011;42545;50.054;8.306;2023-01-29T01:16:15;4.60;;;3.03;;
56670;SDS011;42545;50.054;8.306;2023-01-29T01:18:45;4.22;;;2.80;;
56670;SDS011;42545;50.054;8.306;2023-01-29T01:21:12;2.80;;;2.53;;
56670;SDS011;42545;50.054;8.306;2023-01-29T01:23:40;2.92;;;2.40;;
56670;SDS011;42545;50.054;8.306;2023-01-29T01:26:09;2.50;;;2.00;;
56670;SDS011;42545;50.054;8.306;2023-01-29T01:28:36;2.88;;;2.33;;
56670;SDS011;42545;50.054;8.306;2023-01-29T01:31:06;3.83;;;2.90;;
56670;SDS011;42545;50.054;8.306;2023-01-29T01:33:34;2.97;;;2.28;;
56670;SDS011;42545;50.054;8.306;2023-01-29T01:36:02;2.50;;;2.00;;
56670;SDS011;42545;50.054;8.306;2023-01-29T01:38:29;3.25;;;2.28;;
56670;SDS011;42545;50.054;8.306;2023-01-29T01:40:57;2.45;;;2.08;;
56670;SDS011;42545;50.054;8.306;2023-01-29T01:43:24;2.53;;;2.10;;
56670;SDS011;42545;50.054;8.306;2023-01-29T01:45:51;2.38;;;1.83;;
56670;SDS011;42545;50.054;8.306;2023-01-29T01:48:20;2.20;;;1.77;;
56670;SDS011;42545;50.054;8.306;2023-01-29T01:50:51;2.42;;;1.80;;
56670;SDS011;42545;50.054;8.306;2023-01-29T01:53:25;2.33;;;1.70;;
56670;SDS011;42545;50.054;8.306;2023-01-29T01:55:56;2.20;;;1.75;;
56670;SDS011;42545;50.054;8.306;2023-01-29T01:58:28;2.45;;;1.90;;
56670;SDS011;42545;50.054;8.306;2023-01-29T02:00:59;2.00;;;1.77;;
56670;SDS011;42545;50.054;8.306;2023-01-29T02:03:26;2.85;;;2.08;;
56670;SDS011;42545;50.054;8.306;2023-01-29T02:06:13;2.00;;;1.80;;
56670;SDS011;42545;50.054;8.306;2023-01-29T02:08:57;3.13;;;2.50;;
56670;SDS011;42545;50.054;8.306;2023-01-29T02:11:47;3.88;;;2.40;;
56670;SDS011;42545;50.054;8.306;2023-01-29T02:14:13;3.63;;;2.38;;
56670;SDS011;42545;50.054;8.306;2023-01-29T02:16:41;4.03;;;2.72;;
56670;SDS011;42545;50.054;8.306;2023-01-29T02:19:09;3.10;;;2.42;;
56670;SDS011;42545;50.054;8.306;2023-01-29T02:21:49;3.17;;;2.40;;
56670;SDS011;42545;50.054;8.306;2023-01-29T02:24:40;3.00;;;2.30;;
56670;SDS011;42545;50.054;8.306;2023-01-29T02:27:28;3.42;;;2.38;;
56670;SDS011;42545;50.054;8.306;2023-01-29T02:30:02;2.40;;;2.05;;
56670;SDS011;42545;50.054;8.306;2023-01-29T02:32:34;3.42;;;2.72;;
56670;SDS011;42545;50.054;8.306;2023-01-29T02:35:08;3.50;;;2.70;;
56670;SDS011;42545;50.054;8.306;2023-01-29T02:37:56;3.15;;;2.38;;
56670;SDS011;42545;50.054;8.306;2023-01-29T02:40:30;2.83;;;2.47;;
56670;SDS011;42545;50.054;8.306;2023-01-29T02:43:06;3.72;;;2.95;;
56670;SDS011;42545;50.054;8.306;2023-01-29T02:45:44;4.40;;;2.90;;
56670;SDS011;42545;50.054;8.306;2023-01-29T02:48:16;4.47;;;3.00;;
56670;SDS011;42545;50.054;8.306;2023-01-29T02:50:47;3.92;;;3.10;;
56670;SDS011;42545;50.054;8.306;2023-01-29T02:53:20;7.72;;;5.28;;
56670;SDS011;42545;50.054;8.306;2023-01-29T02:55:54;9.70;;;5.60;;
56670;SDS011;42545;50.054;8.306;2023-01-29T02:58:26;5.15;;;4.35;;
56670;SDS011;42545;50.054;8.306;2023-01-29T03:00:59;5.82;;;4.20;;
56670;SDS011;42545;50.054;8.306;2023-01-29T03:03:30;6.07;;;4.13;;
56670;SDS011;42545;50.054;8.306;2023-01-29T03:06:01;6.03;;;4.10;;
56670;SDS011;42545;50.054;8.306;2023-01-29T03:08:43;5.68;;;4.10;;
56670;SDS011;42545;50.054;8.306;2023-01-29T03:11:15;5.95;;;4.45;;
56670;SDS011;42545;50.054;8.306;2023-01-29T03:13:44;13.35;;;6.07;;
56670;SDS011;42545;50.054;8.306;2023-01-29T03:16:18;7.18;;;4.45;;
56670;SDS011;42545;50.054;8.306;2023-01-29T03:18:53;7.93;;;5.32;;
56670;SDS011;42545;50.054;8.306;2023-01-29T03:21:24;7.00;;;4.68;;
56670;SDS011;42545;50.054;8.306;2023-01-29T03:24:13;9.60;;;5.07;;
56670;SDS011;42545;50.054;8.306;2023-01-29T03:27:03;8.10;;;4.85;;
56670;SDS011;42545;50.054;8.306;2023-01-29T03:29:52;5.85;;;4.38;;
56670;SDS011;42545;50.054;8.306;2023-01-29T03:32:40;7.60;;;4.35;;
56670;SDS011;42545;50.054;8.306;2023-01-29T03:35:09;11.40;;;6.85;;
56670;SDS011;42545;50.054;8.306;2023-01-29T03:37:45;8.77;;;6.10;;
56670;SDS011;42545;50.054;8.306;2023-01-29T03:40:13;7.82;;;5.45;;
56670;SDS011;42545;50.054;8.306;2023-01-29T03:42:43;10.60;;;5.80;;
56670;SDS011;42545;50.054;8.306;2023-01-29T03:45:23;7.60;;;4.97;;
56670;SDS011;42545;50.054;8.306;2023-01-29T03:48:01;8.32;;;4.50;;
56670;SDS011;42545;50.054;8.306;2023-01-29T03:50:34;7.13;;;4.85;;
56670;SDS011;42545;50.054;8.306;2023-01-29T03:53:05;9.30;;;5.90;;
56670;SDS011;42545;50.054;8.306;2023-01-29T03:55:43;6.13;;;4.63;;
56670;SDS011;42545;50.054;8.306;2023-01-29T03:58:22;7.05;;;5.10;;
56670;SDS011;42545;50.054;8.306;2023-01-29T04:00:55;6.38;;;4.82;;
56670;SDS011;42545;50.054;8.306;2023-01-29T04:03:28;6.35;;;4.78;;
56670;SDS011;42545;50.054;8.306;2023-01-29T04:06:02;9.43;;;6.00;;
56670;SDS011;42545;50.054;8.306;2023-01-29T04:08:35;8.00;;;5.68;;
56670;SDS011;42545;50.054;8.306;2023-01-29T04:11:07;6.18;;;4.40;;
56670;SDS011;42545;50.054;8.306;2023-01-29T04:13:37;6.55;;;4.80;;
56670;SDS011;42545;50.054;8.306;2023-01-29T04:16:06;8.45;;;5.57;;
56670;SDS011;42545;50.054;8.306;2023-01-29T04:18:39;7.55;;;4.38;;
56670;SDS011;42545;50.054;8.306;2023-01-29T04:21:09;9.48;;;5.97;;
56670;SDS011;42545;50.054;8.306;2023-01-29T04:23:36;6.82;;;4.65;;
56670;SDS011;42545;50.054;8.306;2023-01-29T04:26:08;7.38;;;4.85;;
56670;SDS011;42545;50.054;8.306;2023-01-29T04:28:49;8.52;;;4.55;;
56670;SDS011;42545;50.054;8.306;2023-01-29T04:31:25;7.47;;;5.05;;
56670;SDS011;42545;50.054;8.306;2023-01-29T04:34:01;7.40;;;4.43;;
56670;SDS011;42545;50.054;8.306;2023-01-29T04:36:37;6.68;;;4.07;;
56670;SDS011;42545;50.054;8.306;2023-01-29T04:39:14;12.10;;;5.82;;
56670;SDS011;42545;50.054;8.306;2023-01-29T04:41:49;9.02;;;5.60;;
56670;SDS011;42545;50.054;8.306;2023-01-29T04:44:25;6.88;;;4.38;;
56670;SDS011;42545;50.054;8.306;2023-01-29T04:47:01;8.85;;;5.55;;
56670;SDS011;42545;50.054;8.306;2023-01-29T04:49:34;12.60;;;6.45;;
56670;SDS011;42545;50.054;8.306;2023-01-29T04:52:11;8.45;;;5.38;;
56670;SDS011;42545;50.054;8.306;2023-01-29T04:54:50;8.75;;;5.22;;
56670;SDS011;42545;50.054;8.306;2023-01-29T04:57:25;12.85;;;7.43;;
56670;SDS011;42545;50.054;8.306;2023-01-29T04:59:58;10.25;;;6.53;;
56670;SDS011;42545;50.054;8.306;2023-01-29T05:02:31;10.00;;;6.22;;
56670;SDS011;42545;50.054;8.306;2023-01-29T05:05:02;8.73;;;5.63;;
56670;SDS011;42545;50.054;8.306;2023-01-29T05:07:31;8.73;;;5.60;;
56670;SDS011;42545;50.054;8.306;2023-01-29T05:10:01;9.65;;;5.32;;
56670;SDS011;42545;50.054;8.306;2023-01-29T05:12:29;8.90;;;5.53;;
56670;SDS011;42545;50.054;8.306;2023-01-29T05:14:57;7.40;;;4.93;;
56670;SDS011;42545;50.054;8.306;2023-01-29T05:17:27;7.38;;;5.45;;
56670;SDS011;42545;50.054;8.306;2023-01-29T05:19:54;7.03;;;4.80;;
56670;SDS011;42545;50.054;8.306;2023-01-29T05:22:23;7.75;;;4.70;;
56670;SDS011;42545;50.054;8.306;2023-01-29T05:24:52;9.20;;;5.90;;
56670;SDS011;42545;50.054;8.306;2023-01-29T05:27:19;6.93;;;4.43;;
56670;SDS011;42545;50.054;8.306;2023-01-29T05:30:05;7.70;;;4.95;;
56670;SDS011;42545;50.054;8.306;2023-01-29T05:32:34;10.00;;;5.53;;
56670;SDS011;42545;50.054;8.306;2023-01-29T05:35:01;9.82;;;6.40;;
56670;SDS011;42545;50.054;8.306;2023-01-29T05:37:29;9.90;;;5.88;;
56670;SDS011;42545;50.054;8.306;2023-01-29T05:39:55;9.60;;;5.30;;
56670;SDS011;42545;50.054;8.306;2023-01-29T05:42:22;7.47;;;5.35;;
56670;SDS011;42545;50.054;8.306;2023-01-29T05:44:49;7.20;;;4.80;;
56670;SDS011;42545;50.054;8.306;2023-01-29T05:47:17;9.55;;;6.07;;
56670;SDS011;42545;50.054;8.306;2023-01-29T05:49:44;9.38;;;6.00;;
56670;SDS011;42545;50.054;8.306;2023-01-29T05:52:11;8.85;;;6.07;;
56670;SDS011;42545;50.054;8.306;2023-01-29T05:54:39;10.07;;;6.10;;
56670;SDS011;42545;50.054;8.306;2023-01-29T05:57:06;9.65;;;6.20;;
56670;SDS011;42545;50.054;8.306;2023-01-29T05:59:33;8.70;;;6.00;;
56670;SDS011;42545;50.054;8.306;2023-01-29T06:01:59;11.02;;;6.30;;
56670;SDS011;42545;50.054;8.306;2023-01-29T06:04:26;9.02;;;6.13;;
56670;SDS011;42545;50.054;8.306;2023-01-29T06:06:53;11.20;;;6.80;;
56670;SDS011;42545;50.054;8.306;2023-01-29T06:09:19;9.57;;;5.95;;
56670;SDS011;42545;50.054;8.306;2023-01-29T06:11:48;10.73;;;6.00;;
56670;SDS011;42545;50.054;8.306;2023-01-29T06:14:14;10.52;;;6.40;;
56670;SDS011;42545;50.054;8.306;2023-01-29T06:16:41;12.25;;;6.45;;
56670;SDS011;42545;50.054;8.306;2023-01-29T06:19:08;10.35;;;6.72;;
56670;SDS011;42545;50.054;8.306;2023-01-29T06:21:35;14.13;;;7.53;;
56670;SDS011;42545;50.054;8.306;2023-01-29T06:24:01;11.82;;;6.97;;
56670;SDS011;42545;50.054;8.306;2023-01-29T06:26:28;12.80;;;7.70;;
56670;SDS011;42545;50.054;8.306;2023-01-29T06:28:56;12.57;;;7.15;;
56670;SDS011;42545;50.054;8.306;2023-01-29T06:31:23;10.05;;;6.07;;
56670;SDS011;42545;50.054;8.306;2023-01-29T06:33:50;12.68;;;7.57;;
56670;SDS011;42545;50.054;8.306;2023-01-29T06:36:16;10.13;;;5.85;;
56670;SDS011;42545;50.054;8.306;2023-01-29T06:38:43;7.63;;;4.85;;
56670;SDS011;42545;50.054;8.306;2023-01-29T06:41:10;9.02;;;5.78;;
56670;SDS011;42545;50.054;8.306;2023-01-29T06:43:38;8.35;;;5.40;;
56670;SDS011;42545;50.054;8.306;2023-01-29T06:46:07;8.10;;;5.25;;
56670;SDS011;42545;50.054;8.306;2023-01-29T06:48:34;9.35;;;5.00;;
56670;SDS011;42545;50.054;8.306;2023-01-29T06:51:01;7.28;;;4.57;;
56670;SDS011;42545;50.054;8.306;2023-01-29T06:53:29;8.73;;;5.75;;
56670;SDS011;42545;50.054;8.306;2023-01-29T06:55:56;10.57;;;5.90;;
56670;SDS011;42545;50.054;8.306;2023-01-29T06:58:22;8.48;;;5.70;;
56670;SDS011;42545;50.054;8.306;2023-01-29T07:00:49;8.00;;;5.10;;
56670;SDS011;42545;50.054;8.306;2023-01-29T07:03:19;10.13;;;5.88;;
56670;SDS011;42545;50.054;8.306;2023-01-29T07:05:49;13.05;;;7.40;;
56670;SDS011;42545;50.054;8.306;2023-01-29T07:08:17;10.52;;;6.88;;
56670;SDS011;42545;50.054;8.306;2023-01-29T07:10:46;10.93;;;6.07;;
56670;SDS011;42545;50.054;8.306;2023-01-29T07:13:14;10.60;;;5.95;;
56670;SDS011;42545;50.054;8.306;2023-01-29T07:15:43;12.10;;;6.80;;
56670;SDS011;42545;50.054;8.306;2023-01-29T07:18:10;9.45;;;6.10;;
56670;SDS011;42545;50.054;8.306;2023-01-29T07:20:39;11.65;;;6.68;;
56670;SDS011;42545;50.054;8.306;2023-01-29T07:23:07;9.77;;;6.60;;
56670;SDS011;42545;50.054;8.306;2023-01-29T07:25:36;18.25;;;8.38;;
56670;SDS011;42545;50.054;8.306;2023-01-29T07:28:03;15.23;;;8.30;;
56670;SDS011;42545;50.054;8.306;2023-01-29T07:30:30;17.45;;;8.20;;
56670;SDS011;42545;50.054;8.306;2023-01-29T07:32:59;16.73;;;9.05;;
56670;SDS011;42545;50.054;8.306;2023-01-29T07:35:27;12.38;;;7.07;;
56670;SDS011;42545;50.054;8.306;2023-01-29T07:37:55;13.82;;;7.70;;
56670;SDS011;42545;50.054;8.306;2023-01-29T07:42:56;16.10;;;8.57;;
56670;SDS011;42545;50.054;8.306;2023-01-29T07:45:24;13.75;;;7.75;;
56670;SDS011;42545;50.054;8.306;2023-01-29T07:47:52;11.18;;;6.47;;
56670;SDS011;42545;50.054;8.306;2023-01-29T07:50:21;12.02;;;6.68;;
56670;SDS011;42545;50.054;8.306;2023-01-29T07:52:48;18.60;;;9.23;;
56670;SDS011;42545;50.054;8.306;2023-01-29T07:55:18;16.60;;;7.97;;
56670;SDS011;42545;50.054;8.306;2023-01-29T07:57:45;15.85;;;7.78;;
56670;SDS011;42545;50.054;8.306;2023-01-29T08:00:13;11.88;;;7.40;;
56670;SDS011;42545;50.054;8.306;2023-01-29T08:02:40;10.75;;;6.47;;
56670;SDS011;42545;50.054;8.306;2023-01-29T08:05:07;9.52;;;6.28;;
56670;SDS011;42545;50.054;8.306;2023-01-29T08:07:38;13.27;;;8.65;;
56670;SDS011;42545;50.054;8.306;2023-01-29T08:10:06;14.07;;;7.82;;
56670;SDS011;42545;50.054;8.306;2023-01-29T08:12:37;11.13;;;6.60;;
56670;SDS011;42545;50.054;8.306;2023-01-29T08:15:04;12.10;;;6.05;;
56670;SDS011;42545;50.054;8.306;2023-01-29T08:17:33;12.00;;;6.97;;
56670;SDS011;42545;50.054;8.306;2023-01-29T08:20:00;13.38;;;8.27;;
56670;SDS011;42545;50.054;8.306;2023-01-29T08:22:26;12.80;;;8.02;;
56670;SDS011;42545;50.054;8.306;2023-01-29T08:24:53;10.57;;;6.53;;
56670;SDS011;42545;50.054;8.306;2023-01-29T08:27:19;11.95;;;6.38;;
56670;SDS011;42545;50.054;8.306;2023-01-29T08:29:48;10.90;;;6.43;;
56670;SDS011;42545;50.054;8.306;2023-01-29T08:32:15;12.25;;;6.28;;
56670;SDS011;42545;50.054;8.306;2023-01-29T08:34:42;9.77;;;6.45;;
56670;SDS011;42545;50.054;8.306;2023-01-29T08:37:09;9.45;;;6.40;;
56670;SDS011;42545;50.054;8.306;2023-01-29T08:39:36;16.00;;;9.20;;
56670;SDS011;42545;50.054;8.306;2023-01-29T08:42:05;10.45;;;6.78;;
56670;SDS011;42545;50.054;8.306;2023-01-29T08:44:33;10.35;;;6.82;;
56670;SDS011;42545;50.054;8.306;2023-01-29T08:47:01;12.93;;;7.10;;
56670;SDS011;42545;50.054;8.306;2023-01-29T08:49:28;11.23;;;6.75;;
56670;SDS011;42545;50.054;8.306;2023-01-29T08:51:54;13.35;;;7.78;;
56670;SDS011;42545;50.054;8.306;2023-01-29T08:54:22;9.77;;;6.25;;
56670;SDS011;42545;50.054;8.306;2023-01-29T08:56:49;10.38;;;6.25;;
56670;SDS011;42545;50.054;8.306;2023-01-29T08:59:17;10.52;;;6.90;;
56670;SDS011;42545;50.054;8.306;2023-01-29T09:01:44;11.07;;;6.40;;
56670;SDS011;42545;50.054;8.306;2023-01-29T09:04:13;9.85;;;5.82;;
56670;SDS011;42545;50.054;8.306;2023-01-29T09:06:42;9.25;;;6.13;;
56670;SDS011;42545;50.054;8.306;2023-01-29T09:09:15;10.05;;;7.07;;
56670;SDS011;42545;50.054;8.306;2023-01-29T09:11:42;11.23;;;6.97;;
56670;SDS011;42545;50.054;8.306;2023-01-29T09:14:10;10.85;;;6.88;;
56670;SDS011;42545;50.054;8.306;2023-01-29T09:16:38;10.50;;;6.53;;
56670;SDS011;42545;50.054;8.306;2023-01-29T09:19:08;9.27;;;6.30;;
56670;SDS011;42545;50.054;8.306;2023-01-29T09:21:36;11.38;;;6.65;;
56670;SDS011;42545;50.054;8.306;2023-01-29T09:24:03;9.52;;;5.78;;
56670;SDS011;42545;50.054;8.306;2023-01-29T09:26:35;8.65;;;5.93;;
56670;SDS011;42545;50.054;8.306;2023-01-29T09:29:03;10.65;;;6.03;;
56670;SDS011;42545;50.054;8.306;2023-01-29T09:31:32;9.02;;;5.78;;
56670;SDS011;42545;50.054;8.306;2023-01-29T09:34:03;11.02;;;6.78;;
56670;SDS011;42545;50.054;8.306;2023-01-29T09:36:31;8.95;;;5.70;;
56670;SDS011;42545;50.054;8.306;2023-01-29T09:39:02;9.05;;;5.90;;
56670;SDS011;42545;50.054;8.306;2023-01-29T09:41:40;11.63;;;6.90;;
56670;SDS011;42545;50.054;8.306;2023-01-29T09:44:16;11.57;;;7.05;;
56670;SDS011;42545;50.054;8.306;2023-01-29T09:46:49;11.13;;;6.63;;
56670;SDS011;42545;50.054;8.306;2023-01-29T09:49:20;8.70;;;5.88;;
56670;SDS011;42545;50.054;8.306;2023-01-29T09:51:52;10.43;;;6.45;;
56670;SDS011;42545;50.054;8.306;2023-01-29T09:54:23;10.77;;;5.80;;
56670;SDS011;42545;50.054;8.306;2023-01-29T09:56:55;8.85;;;5.82;;
56670;SDS011;42545;50.054;8.306;2023-01-29T09:59:24;10.70;;;5.50;;
56670;SDS011;42545;50.054;8.306;2023-01-29T10:01:58;8.60;;;5.03;;
56670;SDS011;42545;50.054;8.306;2023-01-29T10:04:53;8.10;;;5.03;;
56670;SDS011;42545;50.054;8.306;2023-01-29T10:07:39;6.68;;;4.93;;
56670;SDS011;42545;50.054;8.306;2023-01-29T10:10:34;9.73;;;5.45;;
56670;SDS011;42545;50.054;8.306;2023-01-29T10:13:13;8.40;;;5.60;;
56670;SDS011;42545;50.054;8.306;2023-01-29T10:15:48;7.55;;;5.43;;
56670;SDS011;42545;50.054;8.306;2023-01-29T10:18:32;9.25;;;5.57;;
56670;SDS011;42545;50.054;8.306;2023-01-29T10:21:18;8.77;;;5.82;;
56670;SDS011;42545;50.054;8.306;2023-01-29T10:23:59;9.18;;;6.15;;
56670;SDS011;42545;50.054;8.306;2023-01-29T10:26:38;7.55;;;5.00;;
56670;SDS011;42545;50.054;8.306;2023-01-29T10:29:06;8.60;;;5.07;;
56670;SDS011;42545;50.054;8.306;2023-01-29T10:31:36;8.65;;;5.80;;
56670;SDS011;42545;50.054;8.306;2023-01-29T10:34:06;7.95;;;5.30;;
56670;SDS011;42545;50.054;8.306;2023-01-29T10:36:40;8.13;;;4.97;;
56670;SDS011;42545;50.054;8.306;2023-01-29T10:41:45;8.77;;;5.10;;
56670;SDS011;42545;50.054;8.306;2023-01-29T10:44:27;8.02;;;5.70;;
56670;SDS011;42545;50.054;8.306;2023-01-29T10:47:10;8.32;;;5.30;;
56670;SDS011;42545;50.054;8.306;2023-01-29T10:49:57;9.35;;;5.07;;
56670;SDS011;42545;50.054;8.306;2023-01-29T10:52:41;8.63;;;5.45;;
56670;SDS011;42545;50.054;8.306;2023-01-29T10:55:38;10.13;;;5.97;;
56670;SDS011;42545;50.054;8.306;2023-01-29T10:58:18;11.57;;;7.40;;
56670;SDS011;42545;50.054;8.306;2023-01-29T11:00:52;9.57;;;6.53;;
56670;SDS011;42545;50.054;8.306;2023-01-29T11:03:21;10.90;;;7.03;;
56670;SDS011;42545;50.054;8.306;2023-01-29T11:05:50;10.85;;;6.82;;
56670;SDS011;42545;50.054;8.306;2023-01-29T11:08:25;12.18;;;7.07;;
56670;SDS011;42545;50.054;8.306;2023-01-29T11:11:00;8.82;;;5.82;;
56670;SDS011;42545;50.054;8.306;2023-01-29T11:13:37;10.00;;;6.53;;
56670;SDS011;42545;50.054;8.306;2023-01-29T11:16:07;9.13;;;5.95;;
56670;SDS011;42545;50.054;8.306;2023-01-29T11:18:49;9.25;;;5.90;;
56670;SDS011;42545;50.054;8.306;2023-01-29T11:21:21;14.90;;;7.15;;
56670;SDS011;42545;50.054;8.306;2023-01-29T11:24:03;9.68;;;6.18;;
56670;SDS011;42545;50.054;8.306;2023-01-29T11:26:34;10.23;;;6.13;;
56670;SDS011;42545;50.054;8.306;2023-01-29T11:29:07;11.45;;;6.90;;
56670;SDS011;42545;50.054;8.306;2023-01-29T11:31:56;8.73;;;6.50;;
56670;SDS011;42545;50.054;8.306;2023-01-29T11:34:24;10.77;;;6.57;;
56670;SDS011;42545;50.054;8.306;2023-01-29T11:36:55;11.55;;;7.00;;
56670;SDS011;42545;50.054;8.306;2023-01-29T11:39:24;9.48;;;6.60;;
56670;SDS011;42545;50.054;8.306;2023-01-29T11:41:55;11.50;;;6.53;;
56670;SDS011;42545;50.054;8.306;2023-01-29T11:44:29;8.98;;;5.95;;
56670;SDS011;42545;50.054;8.306;2023-01-29T11:47:07;9.20;;;6.78;;
56670;SDS011;42545;50.054;8.306;2023-01-29T11:49:37;8.50;;;6.15;;
56670;SDS011;42545;50.054;8.306;2023-01-29T11:52:07;14.57;;;8.50;;
56670;SDS011;42545;50.054;8.306;2023-01-29T11:54:37;10.63;;;6.38;;
56670;SDS011;42545;50.054;8.306;2023-01-29T11:57:16;10.45;;;7.13;;
56670;SDS011;42545;50.054;8.306;2023-01-29T11:59:55;9.13;;;6.47;;
56670;SDS011;42545;50.054;8.306;2023-01-29T12:02:26;10.38;;;6.80;;
56670;SDS011;42545;50.054;8.306;2023-01-29T12:05:00;10.27;;;7.20;;
56670;SDS011;42545;50.054;8.306;2023-01-29T12:07:31;10.18;;;6.43;;
56670;SDS011;42545;50.054;8.306;2023-01-29T12:09:59;8.85;;;6.50;;
56670;SDS011;42545;50.054;8.306;2023-01-29T12:12:28;9.70;;;6.43;;
56670;SDS011;42545;50.054;8.306;2023-01-29T12:15:13;11.00;;;6.82;;
56670;SDS011;42545;50.054;8.306;2023-01-29T12:17:42;9.13;;;6.13;;
56670;SDS011;42545;50.054;8.306;2023-01-29T12:20:16;11.50;;;6.97;;
56670;SDS011;42545;50.054;8.306;2023-01-29T12:22:50;9.00;;;6.15;;
56670;SDS011;42545;50.054;8.306;2023-01-29T12:25:24;9.98;;;6.38;;
56670;SDS011;42545;50.054;8.306;2023-01-29T12:28:03;8.40;;;6.18;;
56670;SDS011;42545;50.054;8.306;2023-01-29T12:30:39;12.88;;;6.05;;
56670;SDS011;42545;50.054;8.306;2023-01-29T12:33:17;10.85;;;6.90;;
56670;SDS011;42545;50.054;8.306;2023-01-29T12:35:55;10.10;;;6.60;;
56670;SDS011;42545;50.054;8.306;2023-01-29T12:38:28;8.93;;;6.63;;
56670;SDS011;42545;50.054;8.306;2023-01-29T12:40:55;10.15;;;6.10;;
56670;SDS011;42545;50.054;8.306;2023-01-29T12:43:28;10.20;;;6.63;;
56670;SDS011;42545;50.054;8.306;2023-01-29T12:46:00;11.63;;;6.47;;
56670;SDS011;42545;50.054;8.306;2023-01-29T12:48:29;10.13;;;7.00;;
56670;SDS011;42545;50.054;8.306;2023-01-29T12:51:02;9.57;;;6.50;;
56670;SDS011;42545;50.054;8.306;2023-01-29T12:53:33;8.05;;;6.15;;
56670;SDS011;42545;50.054;8.306;2023-01-29T12:56:08;17.63;;;6.38;;
56670;SDS011;42545;50.054;8.306;2023-01-29T12:58:40;8.70;;;6.43;;
56670;SDS011;42545;50.054;8.306;2023-01-29T13:01:13;9.02;;;6.00;;
56670;SDS011;42545;50.054;8.306;2023-01-29T13:03:44;9.75;;;6.00;;
56670;SDS011;42545;50.054;8.306;2023-01-29T13:06:16;12.18;;;6.97;;
56670;SDS011;42545;50.054;8.306;2023-01-29T13:08:50;16.35;;;6.80;;
56670;SDS011;42545;50.054;8.306;2023-01-29T13:11:20;13.15;;;6.22;;
56670;SDS011;42545;50.054;8.306;2023-01-29T13:13:53;11.30;;;6.18;;
56670;SDS011;42545;50.054;8.306;2023-01-29T13:16:27;8.63;;;5.35;;
56670;SDS011;42545;50.054;8.306;2023-01-29T13:18:59;8.95;;;6.03;;
56670;SDS011;42545;50.054;8.306;2023-01-29T13:21:32;8.02;;;5.90;;
56670;SDS011;42545;50.054;8.306;2023-01-29T13:24:03;6.95;;;5.53;;
56670;SDS011;42545;50.054;8.306;2023-01-29T13:26:36;7.25;;;5.68;;
56670;SDS011;42545;50.054;8.306;2023-01-29T13:29:03;9.50;;;5.82;;
56670;SDS011;42545;50.054;8.306;2023-01-29T13:31:32;7.38;;;5.60;;
56670;SDS011;42545;50.054;8.306;2023-01-29T13:34:03;7.35;;;5.63;;
56670;SDS011;42545;50.054;8.306;2023-01-29T13:36:35;7.35;;;5.30;;
56670;SDS011;42545;50.054;8.306;2023-01-29T13:39:07;7.82;;;6.10;;
56670;SDS011;42545;50.054;8.306;2023-01-29T13:41:45;9.15;;;5.20;;
56670;SDS011;42545;50.054;8.306;2023-01-29T13:44:19;8.00;;;5.78;;
56670;SDS011;42545;50.054;8.306;2023-01-29T13:46:52;8.82;;;6.28;;
56670;SDS011;42545;50.054;8.306;2023-01-29T13:49:26;13.25;;;6.32;;
56670;SDS011;42545;50.054;8.306;2023-01-29T13:51:57;9.20;;;6.47;;
56670;SDS011;42545;50.054;8.306;2023-01-29T13:54:39;7.57;;;5.45;;
56670;SDS011;42545;50.054;8.306;2023-01-29T13:57:15;8.98;;;6.10;;
56670;SDS011;42545;50.054;8.306;2023-01-29T14:00:00;7.07;;;5.07;;
56670;SDS011;42545;50.054;8.306;2023-01-29T14:02:29;9.52;;;5.75;;
56670;SDS011;42545;50.054;8.306;2023-01-29T14:07:58;11.60;;;6.68;;
56670;SDS011;42545;50.054;8.306;2023-01-29T14:10:27;9.13;;;6.05;;
56670;SDS011;42545;50.054;8.306;2023-01-29T14:18:59;9.27;;;5.95;;
56670;SDS011;42545;50.054;8.306;2023-01-29T14:21:31;10.15;;;6.30;;
56670;SDS011;42545;50.054;8.306;2023-01-29T14:24:06;9.07;;;6.15;;
56670;SDS011;42545;50.054;8.306;2023-01-29T14:26:40;8.27;;;6.10;;
56670;SDS011;42545;50.054;8.306;2023-01-29T14:29:17;7.10;;;5.35;;
56670;SDS011;42545;50.054;8.306;2023-01-29T14:31:48;10.75;;;7.13;;
56670;SDS011;42545;50.054;8.306;2023-01-29T14:34:20;9.60;;;6.47;;
56670;SDS011;42545;50.054;8.306;2023-01-29T14:36:51;13.35;;;6.75;;
56670;SDS011;42545;50.054;8.306;2023-01-29T14:39:23;10.13;;;7.30;;
56670;SDS011;42545;50.054;8.306;2023-01-29T14:41:56;9.30;;;5.75;;
56670;SDS011;42545;50.054;8.306;2023-01-29T14:53:21;9.85;;;6.18;;
56670;SDS011;42545;50.054;8.306;2023-01-29T14:55:54;9.88;;;6.70;;
56670;SDS011;42545;50.054;8.306;2023-01-29T14:58:28;10.82;;;6.85;;
56670;SDS011;42545;50.054;8.306;2023-01-29T15:01:04;8.10;;;5.88;;
56670;SDS011;42545;50.054;8.306;2023-01-29T15:03:42;11.27;;;6.40;;
56670;SDS011;42545;50.054;8.306;2023-01-29T15:06:15;7.85;;;5.28;;
56670;SDS011;42545;50.054;8.306;2023-01-29T15:08:46;11.30;;;6.20;;
56670;SDS011;42545;50.054;8.306;2023-01-29T15:11:22;8.48;;;5.68;;
56670;SDS011;42545;50.054;8.306;2023-01-29T15:14:20;8.15;;;5.43;;
56670;SDS011;42545;50.054;8.306;2023-01-29T15:16:59;10.77;;;5.55;;
56670;SDS011;42545;50.054;8.306;2023-01-29T15:19:33;10.43;;;6.47;;
56670;SDS011;42545;50.054;8.306;2023-01-29T15:22:05;20.05;;;8.77;;
56670;SDS011;42545;50.054;8.306;2023-01-29T15:24:35;18.20;;;8.45;;
56670;SDS011;42545;50.054;8.306;2023-01-29T15:27:04;19.38;;;7.95;;
56670;SDS011;42545;50.054;8.306;2023-01-29T15:29:32;17.25;;;7.85;;
56670;SDS011;42545;50.054;8.306;2023-01-29T15:32:06;11.93;;;6.10;;
56670;SDS011;42545;50.054;8.306;2023-01-29T15:34:40;10.23;;;5.97;;